DLH453 KLAX-EDDM
Flight info
| Callsign | DLH453 |
|---|---|
| Flight time | N/A |
| Altitude | 35000 |
| Route | OSHNN1 BEALE DCT EEVUN Q70 BAWER DCT KD57Q DCT KD72U DCT KP03A DCT GABOV DCT 53N090W 5930N08000W/N0490F370 DCT BEPEG DCT MUSVA/M084F370 DCT CLAVY DCT 64N050W 64N040W 63N030W 6130N02000W/M085F390 DCT BALIX/N0481F390 DCT NINEX DCT TOPPA DCT OTMEC DCT MISGO DCT DOJOH DCT DODEN/N0453F330 DCT TABUM DCT BOMBI T104 HAREM/N0416F270 T104 ROKIL ROKIL1A |
| Aircraft | A388/J-SADE2E3FGHIJ3J4J5M1RWXY/LB1D1 |
Departure
| Time | 2026-04-26 23:32 |
|---|---|
| Airport | Los Angeles International Airport (KLAX) |
Arrival
| Time | N/A |
|---|---|
| Airport | Munich Airport (EDDM) |
| Time | Latitude | Longitude | Altitude | Speed | Heading |
|---|---|---|---|---|---|
| 2026-04-26 22:58 | 33.94262 | -118.41116 | 100 ft | 0 kts | 83° |
| 2026-04-26 23:20 | 33.94259 | -118.41144 | 100 ft | 4 kts | 83° |
| 2026-04-26 23:20 | 33.94256 | -118.41170 | 98 ft | 3 kts | 82° |
| 2026-04-26 23:20 | 33.94249 | -118.41199 | 97 ft | 4 kts | 48° |
| 2026-04-26 23:20 | 33.94228 | -118.41214 | 98 ft | 4 kts | 360° |
| 2026-04-26 23:21 | 33.94203 | -118.41211 | 98 ft | 4 kts | 353° |
| 2026-04-26 23:21 | 33.94184 | -118.41208 | 101 ft | 0 kts | 353° |
| 2026-04-26 23:25 | 33.94199 | -118.41210 | 103 ft | 18 kts | 353° |
| 2026-04-26 23:25 | 33.94391 | -118.41240 | 101 ft | 20 kts | 353° |
| 2026-04-26 23:25 | 33.94409 | -118.41243 | 102 ft | 2 kts | 353° |
| 2026-04-26 23:26 | 33.94434 | -118.41246 | 101 ft | 5 kts | 353° |
| 2026-04-26 23:26 | 33.94476 | -118.41253 | 101 ft | 6 kts | 353° |
| 2026-04-26 23:26 | 33.94521 | -118.41260 | 101 ft | 7 kts | 353° |
| 2026-04-26 23:26 | 33.94568 | -118.41266 | 101 ft | 7 kts | 354° |
| 2026-04-26 23:27 | 33.94618 | -118.41273 | 102 ft | 7 kts | 354° |
| 2026-04-26 23:27 | 33.94668 | -118.41279 | 102 ft | 7 kts | 353° |
| 2026-04-26 23:27 | 33.94717 | -118.41287 | 103 ft | 7 kts | 353° |
| 2026-04-26 23:27 | 33.94745 | -118.41291 | 104 ft | 5 kts | 358° |
| 2026-04-26 23:28 | 33.94777 | -118.41278 | 105 ft | 3 kts | 41° |
| 2026-04-26 23:28 | 33.94801 | -118.41209 | 107 ft | 12 kts | 82° |
| 2026-04-26 23:28 | 33.94813 | -118.41104 | 105 ft | 14 kts | 84° |
| 2026-04-26 23:28 | 33.94822 | -118.40985 | 106 ft | 16 kts | 83° |
| 2026-04-26 23:29 | 33.94838 | -118.40843 | 105 ft | 18 kts | 83° |
| 2026-04-26 23:29 | 33.94855 | -118.40681 | 105 ft | 21 kts | 83° |
| 2026-04-26 23:29 | 33.94873 | -118.40502 | 106 ft | 23 kts | 83° |
| 2026-04-26 23:29 | 33.94894 | -118.40303 | 105 ft | 25 kts | 83° |
| 2026-04-26 23:30 | 33.94899 | -118.40255 | 106 ft | 4 kts | 83° |
| 2026-04-26 23:30 | 33.94906 | -118.40188 | 106 ft | 10 kts | 83° |
| 2026-04-26 23:30 | 33.94915 | -118.40099 | 107 ft | 12 kts | 83° |
| 2026-04-26 23:30 | 33.94926 | -118.39992 | 104 ft | 14 kts | 83° |
| 2026-04-26 23:31 | 33.94968 | -118.39923 | 107 ft | 8 kts | 15° |
| 2026-04-26 23:31 | 33.94996 | -118.39918 | 111 ft | 3 kts | 357° |
| 2026-04-26 23:31 | 33.95033 | -118.39930 | 111 ft | 4 kts | 298° |
| 2026-04-26 23:31 | 33.95034 | -118.40004 | 111 ft | 15 kts | 268° |
| 2026-04-26 23:32 | 33.95003 | -118.40327 | 112 ft | 72 kts | 262° |
| 2026-04-26 23:32 | 33.94910 | -118.41190 | 113 ft | 130 kts | 262° |
| 2026-04-26 23:32 | 33.94784 | -118.42406 | 246 ft | 153 kts | 260° |
| 2026-04-26 23:32 | 33.94676 | -118.43651 | 832 ft | 150 kts | 262° |
| 2026-04-26 23:33 | 33.94584 | -118.44934 | 1330 ft | 156 kts | 264° |
| 2026-04-26 23:33 | 33.94476 | -118.46241 | 1812 ft | 159 kts | 262° |
| 2026-04-26 23:33 | 33.94378 | -118.47571 | 2311 ft | 162 kts | 266° |
| 2026-04-26 23:33 | 33.94318 | -118.48935 | 2791 ft | 164 kts | 266° |
| 2026-04-26 23:34 | 33.94264 | -118.50304 | 3238 ft | 167 kts | 266° |
| 2026-04-26 23:34 | 33.94207 | -118.51260 | 3341 ft | 178 kts | 263° |
| 2026-04-26 23:34 | 33.94075 | -118.52803 | 3472 ft | 191 kts | 263° |
| 2026-04-26 23:34 | 33.93939 | -118.54478 | 3630 ft | 212 kts | 264° |
| 2026-04-26 23:35 | 33.93795 | -118.56333 | 3843 ft | 235 kts | 264° |
| 2026-04-26 23:35 | 33.93636 | -118.58365 | 4225 ft | 249 kts | 265° |
| 2026-04-26 23:35 | 33.93322 | -118.61129 | 5084 ft | 254 kts | 251° |
| 2026-04-26 23:35 | 33.92363 | -118.62927 | 5758 ft | 261 kts | 224° |
| 2026-04-26 23:36 | 33.91342 | -118.63758 | 6196 ft | 267 kts | 206° |
| 2026-04-26 23:36 | 33.89515 | -118.64194 | 6837 ft | 275 kts | 180° |
| 2026-04-26 23:36 | 33.87632 | -118.64020 | 7481 ft | 278 kts | 179° |
| 2026-04-26 23:36 | 33.85655 | -118.63846 | 8166 ft | 279 kts | 178° |
| 2026-04-26 23:37 | 33.83766 | -118.63320 | 8814 ft | 286 kts | 161° |
| 2026-04-26 23:37 | 33.82018 | -118.62133 | 9457 ft | 293 kts | 148° |
| 2026-04-26 23:37 | 33.80340 | -118.60709 | 10072 ft | 296 kts | 149° |
| 2026-04-26 23:37 | 33.78605 | -118.59287 | 10363 ft | 311 kts | 149° |
| 2026-04-26 23:38 | 33.76755 | -118.57793 | 10521 ft | 328 kts | 149° |
| 2026-04-26 23:38 | 33.74811 | -118.56224 | 10695 ft | 344 kts | 149° |
| 2026-04-26 23:38 | 33.72806 | -118.54599 | 11206 ft | 349 kts | 149° |
| 2026-04-26 23:38 | 33.70844 | -118.52842 | 11819 ft | 356 kts | 139° |
| 2026-04-26 23:39 | 33.69315 | -118.50465 | 12385 ft | 365 kts | 121° |
| 2026-04-26 23:39 | 33.68359 | -118.47617 | 12944 ft | 372 kts | 110° |
| 2026-04-26 23:39 | 33.67530 | -118.44675 | 13476 ft | 375 kts | 111° |
| 2026-04-26 23:39 | 33.66655 | -118.41691 | 13974 ft | 379 kts | 112° |
| 2026-04-26 23:40 | 33.65767 | -118.38702 | 14448 ft | 381 kts | 112° |
| 2026-04-26 23:40 | 33.64941 | -118.35664 | 14911 ft | 386 kts | 106° |
| 2026-04-26 23:40 | 33.64490 | -118.32464 | 15370 ft | 392 kts | 97° |
| 2026-04-26 23:40 | 33.64437 | -118.29185 | 15820 ft | 396 kts | 90° |
| 2026-04-26 23:41 | 33.64467 | -118.25931 | 16270 ft | 398 kts | 91° |
| 2026-04-26 23:41 | 33.64475 | -118.22581 | 16708 ft | 401 kts | 90° |
| 2026-04-26 23:41 | 33.64896 | -118.19267 | 17107 ft | 407 kts | 72° |
| 2026-04-26 23:41 | 33.66120 | -118.16218 | 17558 ft | 408 kts | 54° |
| 2026-04-26 23:42 | 33.68022 | -118.13726 | 17950 ft | 408 kts | 36° |
| 2026-04-26 23:42 | 33.72814 | -118.10030 | 18760 ft | 410 kts | 29° |
| 2026-04-26 23:42 | 33.75211 | -118.08163 | 19111 ft | 414 kts | 31° |
| 2026-04-26 23:43 | 33.77586 | -118.06173 | 19460 ft | 417 kts | 33° |
| 2026-04-26 23:43 | 33.79922 | -118.04126 | 19833 ft | 420 kts | 34° |
| 2026-04-26 23:43 | 33.82281 | -118.02015 | 20202 ft | 422 kts | 34° |
| 2026-04-26 23:43 | 33.84606 | -117.99921 | 20565 ft | 425 kts | 34° |
| 2026-04-26 23:44 | 33.87017 | -117.97747 | 20910 ft | 427 kts | 34° |
| 2026-04-26 23:44 | 33.89403 | -117.95595 | 21262 ft | 430 kts | 34° |
| 2026-04-26 23:44 | 33.91797 | -117.93434 | 21619 ft | 432 kts | 34° |
| 2026-04-26 23:44 | 33.94185 | -117.91259 | 21969 ft | 435 kts | 34° |
| 2026-04-26 23:45 | 33.96614 | -117.89033 | 22318 ft | 437 kts | 34° |
| 2026-04-26 23:45 | 33.99047 | -117.86803 | 22656 ft | 440 kts | 34° |
| 2026-04-26 23:45 | 34.01478 | -117.84575 | 23025 ft | 442 kts | 34° |
| 2026-04-26 23:45 | 34.03936 | -117.82323 | 23350 ft | 445 kts | 34° |
| 2026-04-26 23:46 | 34.06399 | -117.80066 | 23684 ft | 447 kts | 34° |
| 2026-04-26 23:46 | 34.08814 | -117.77653 | 23963 ft | 451 kts | 41° |
| 2026-04-26 23:46 | 34.10931 | -117.74852 | 24277 ft | 455 kts | 50° |
| 2026-04-26 23:46 | 34.12905 | -117.71858 | 24551 ft | 458 kts | 49° |
| 2026-04-26 23:47 | 34.14919 | -117.68863 | 24835 ft | 460 kts | 49° |
| 2026-04-26 23:47 | 34.16941 | -117.65874 | 25142 ft | 462 kts | 49° |
| 2026-04-26 23:47 | 34.18982 | -117.62854 | 25443 ft | 464 kts | 49° |
| 2026-04-26 23:47 | 34.21031 | -117.59814 | 25777 ft | 466 kts | 49° |
| 2026-04-26 23:48 | 34.23077 | -117.56773 | 26090 ft | 469 kts | 49° |
| 2026-04-26 23:48 | 34.25140 | -117.53701 | 26408 ft | 471 kts | 49° |
| 2026-04-26 23:48 | 34.27211 | -117.50615 | 26724 ft | 474 kts | 49° |
| 2026-04-26 23:48 | 34.29255 | -117.47567 | 27064 ft | 476 kts | 49° |
| 2026-04-26 23:49 | 34.31348 | -117.44442 | 27385 ft | 479 kts | 49° |
| 2026-04-26 23:49 | 34.33450 | -117.41302 | 27695 ft | 481 kts | 49° |
| 2026-04-26 23:49 | 34.35556 | -117.38152 | 28057 ft | 484 kts | 49° |
| 2026-04-26 23:49 | 34.37669 | -117.34989 | 28393 ft | 486 kts | 49° |